createdAt,value
2022-11-03T00:47:02.567Z,6.35
2022-11-03T00:49:31.139Z,6.25
2022-11-03T00:51:59.483Z,6.10
2022-11-03T00:54:27.879Z,7.00
2022-11-03T00:56:56.318Z,6.75
2022-11-03T00:59:24.463Z,5.88
2022-11-03T01:45:51.063Z,4.97
2022-11-03T01:48:21.100Z,4.90
2022-11-03T01:50:49.847Z,5.18
2022-11-03T01:53:19.061Z,5.40
2022-11-03T01:55:50.438Z,5.47
2022-11-03T01:58:24.015Z,4.72
2022-11-03T02:47:41.245Z,4.10
2022-11-03T02:50:11.539Z,4.57
2022-11-03T02:52:42.588Z,4.45
2022-11-03T02:55:19.286Z,3.85
2022-11-03T02:57:57.872Z,4.50
2022-11-03T03:45:53.996Z,3.83
2022-11-03T03:48:23.720Z,3.63
2022-11-03T03:50:53.124Z,3.75
2022-11-03T03:53:21.932Z,3.83
2022-11-03T03:55:53.174Z,3.70
2022-11-03T03:58:22.524Z,3.78
2022-11-03T04:45:36.452Z,3.35
2022-11-03T04:48:13.767Z,3.67
2022-11-03T04:50:46.826Z,3.10
2022-11-03T04:53:19.979Z,3.22
2022-11-03T04:55:52.284Z,3.78
2022-11-03T04:58:22.667Z,3.25
2022-11-03T05:32:34.684Z,3.22
2022-11-03T05:35:04.448Z,2.70
2022-11-03T05:37:34.636Z,3.30
2022-11-03T05:40:15.923Z,2.92
2022-11-03T05:42:47.579Z,3.00
2022-11-03T05:45:24.006Z,3.33
2022-11-03T05:47:56.317Z,2.97
2022-11-03T05:50:27.701Z,3.13
2022-11-03T05:53:27.767Z,2.90
2022-11-03T05:55:57.975Z,3.08
2022-11-03T05:58:29.822Z,2.70
2022-11-03T06:00:59.820Z,2.80
2022-11-03T06:03:31.879Z,2.67
2022-11-03T06:06:01.192Z,3.00
2022-11-03T06:08:38.943Z,2.63
2022-11-03T06:11:16.157Z,2.90
2022-11-03T06:13:44.723Z,2.70
2022-11-03T06:16:37.126Z,2.72
2022-11-03T06:19:22.264Z,2.90
2022-11-03T06:21:53.187Z,2.70
2022-11-03T06:24:24.466Z,2.85
2022-11-03T06:26:53.575Z,2.70
2022-11-03T06:29:22.915Z,2.97
2022-11-03T06:31:54.474Z,2.70
2022-11-03T06:34:38.412Z,2.65
2022-11-03T06:37:18.771Z,3.00
2022-11-03T06:39:51.481Z,3.10
2022-11-03T06:42:24.748Z,3.10
2022-11-03T06:44:56.341Z,3.10
2022-11-03T06:47:26.907Z,3.10
2022-11-03T06:50:00.268Z,2.58
2022-11-03T06:52:32.081Z,2.78
2022-11-03T06:55:25.166Z,2.72
2022-11-03T06:57:58.889Z,2.60
2022-11-03T07:00:34.607Z,2.67
2022-11-03T07:03:11.368Z,2.70
2022-11-03T07:05:41.273Z,2.80
2022-11-03T07:08:24.195Z,2.70
2022-11-03T07:10:58.529Z,2.33
2022-11-03T07:13:28.922Z,2.38
2022-11-03T07:15:57.159Z,2.40
2022-11-03T07:18:30.615Z,2.40
2022-11-03T07:21:07.966Z,2.33
2022-11-03T07:23:36.654Z,2.72
2022-11-03T07:26:06.035Z,2.38
2022-11-03T07:28:37.999Z,2.80
2022-11-03T07:31:17.878Z,2.50
2022-11-03T07:33:46.561Z,2.28
2022-11-03T07:36:21.180Z,2.58
2022-11-03T07:38:55.055Z,3.15
2022-11-03T07:41:31.155Z,2.40
2022-11-03T07:44:02.969Z,2.20
2022-11-03T07:46:31.119Z,2.75
2022-11-03T07:49:02.117Z,2.70
2022-11-03T07:51:34.705Z,2.30
2022-11-03T07:54:11.275Z,2.30
2022-11-03T07:56:43.883Z,2.35
2022-11-03T07:59:17.285Z,2.50
2022-11-03T08:01:49.355Z,2.40
2022-11-03T08:04:21.363Z,2.40
2022-11-03T08:06:51.477Z,2.75
2022-11-03T08:09:20.079Z,2.72
2022-11-03T08:11:48.865Z,3.08
2022-11-03T08:14:17.059Z,2.22
2022-11-03T08:16:45.564Z,2.70
2022-11-03T08:19:14.132Z,2.58
2022-11-03T08:21:42.233Z,3.33
2022-11-03T08:24:11.717Z,2.88
2022-11-03T08:26:40.051Z,3.88
2022-11-03T08:29:08.210Z,5.05
2022-11-03T08:31:36.303Z,4.32
2022-11-03T08:34:04.447Z,4.00
2022-11-03T08:36:32.641Z,3.83
2022-11-03T08:39:00.794Z,4.00
2022-11-03T08:41:30.436Z,4.07
2022-11-03T08:43:58.872Z,3.58
2022-11-03T08:46:27.270Z,3.67
2022-11-03T08:48:55.650Z,3.00
2022-11-03T08:51:23.780Z,3.38
2022-11-03T08:53:53.978Z,3.50
2022-11-03T08:56:22.980Z,3.17
2022-11-03T08:58:52.752Z,3.38
2022-11-03T09:01:21.155Z,3.30
2022-11-03T09:03:49.379Z,3.33
2022-11-03T09:06:17.614Z,3.13
2022-11-03T09:11:34.746Z,3.10
2022-11-03T09:14:04.516Z,2.92
2022-11-03T09:16:32.660Z,2.35
2022-11-03T09:19:00.875Z,2.65
2022-11-03T09:21:29.479Z,2.40
2022-11-03T09:23:59.576Z,2.70
2022-11-03T09:26:28.121Z,2.20
2022-11-03T09:28:56.306Z,2.20
2022-11-03T09:31:28.265Z,2.10
2022-11-03T09:33:56.583Z,2.40
2022-11-03T09:36:24.751Z,2.22
2022-11-03T09:38:53.233Z,2.88
2022-11-03T09:41:27.581Z,2.20
2022-11-03T09:44:03.629Z,2.00
2022-11-03T09:46:35.193Z,2.22
2022-11-03T09:49:04.736Z,2.22
2022-11-03T09:51:37.165Z,2.30
2022-11-03T09:54:06.673Z,2.67
2022-11-03T09:56:38.016Z,2.03
2022-11-03T09:59:17.130Z,2.17
2022-11-03T10:01:50.105Z,2.30
2022-11-03T10:04:21.144Z,2.38
2022-11-03T10:06:49.368Z,2.55
2022-11-03T10:46:44.719Z,1.90
2022-11-03T10:49:15.882Z,2.10
2022-11-03T10:51:47.956Z,2.10
2022-11-03T10:54:19.724Z,2.08
2022-11-03T10:56:48.753Z,1.73
2022-11-03T10:59:21.100Z,2.03
2022-11-03T11:01:51.065Z,2.20
2022-11-03T11:04:21.897Z,2.10
2022-11-03T11:06:50.364Z,1.60
2022-11-03T11:09:25.832Z,2.17
2022-11-03T11:12:05.486Z,2.13
2022-11-03T11:14:41.152Z,1.88
2022-11-03T11:18:05.717Z,2.00
2022-11-03T11:20:41.433Z,2.00
2022-11-03T11:23:50.061Z,2.17
2022-11-03T11:26:42.551Z,2.17
2022-11-03T11:34:41.981Z,2.10
2022-11-03T11:37:36.733Z,2.83
2022-11-03T11:40:15.005Z,2.05
2022-11-03T11:43:28.207Z,2.20
2022-11-03T11:46:41.181Z,2.33
2022-11-03T11:49:19.102Z,1.95
2022-11-03T11:51:49.098Z,1.90
2022-11-03T11:54:21.795Z,1.80
2022-11-03T11:56:50.661Z,2.08
2022-11-03T11:59:25.667Z,2.03
2022-11-03T12:01:57.973Z,2.08
2022-11-03T12:04:31.456Z,1.90
2022-11-03T12:07:01.467Z,1.80
2022-11-03T12:09:29.833Z,1.90
2022-11-03T12:12:07.038Z,2.10
2022-11-03T12:14:38.328Z,1.88
2022-11-03T12:17:35.082Z,2.10
2022-11-03T12:20:36.561Z,1.90
2022-11-03T12:23:06.138Z,1.70
2022-11-03T12:25:38.333Z,1.83
2022-11-03T12:28:06.861Z,1.98
2022-11-03T12:30:39.622Z,1.70
2022-11-03T12:33:08.961Z,1.77
2022-11-03T12:35:38.561Z,1.60
2022-11-03T12:38:08.467Z,1.98
2022-11-03T12:40:36.668Z,1.70
2022-11-03T12:43:05.076Z,1.60
2022-11-03T12:45:33.485Z,1.75
2022-11-03T12:48:01.651Z,2.00
2022-11-03T12:50:29.756Z,1.80
2022-11-03T12:52:58.416Z,1.92
2022-11-03T12:58:01.519Z,1.77
2022-11-03T13:00:30.406Z,1.67
2022-11-03T13:02:58.902Z,1.85
2022-11-03T13:05:27.083Z,1.50
2022-11-03T13:07:55.532Z,1.45
2022-11-03T13:10:23.975Z,1.90
2022-11-03T13:12:53.863Z,1.60
2022-11-03T13:15:22.235Z,1.65
2022-11-03T13:18:12.382Z,1.42
2022-11-03T13:20:40.382Z,1.58
2022-11-03T13:23:09.089Z,1.77
2022-11-03T13:25:37.528Z,1.50
2022-11-03T13:28:08.075Z,1.80
2022-11-03T13:30:36.556Z,1.70
2022-11-03T13:33:05.243Z,1.65
2022-11-03T13:35:33.629Z,1.83
2022-11-03T13:38:02.008Z,1.75
2022-11-03T13:43:21.272Z,1.75
2022-11-03T13:45:49.438Z,1.75
2022-11-03T13:51:10.582Z,1.70
2022-11-03T13:56:27.989Z,1.80
2022-11-03T14:01:46.552Z,2.30
2022-11-03T14:07:03.804Z,1.70
2022-11-03T14:09:32.215Z,2.00
2022-11-03T14:12:20.527Z,1.60
2022-11-03T14:14:50.046Z,1.60
2022-11-03T14:17:18.142Z,1.52
2022-11-03T14:19:52.056Z,2.30
2022-11-03T14:22:22.227Z,1.60
2022-11-03T14:24:50.842Z,1.52
2022-11-03T14:27:20.352Z,1.55
2022-11-03T14:29:50.453Z,1.90
2022-11-03T14:32:20.104Z,1.77
2022-11-03T14:34:48.849Z,2.20
2022-11-03T14:37:17.567Z,112.57
2022-11-03T14:39:46.310Z,59.90
2022-11-03T14:42:15.586Z,197.75
2022-11-03T14:44:46.179Z,338.00
2022-11-03T14:47:18.693Z,491.17
2022-11-03T14:49:47.338Z,667.20
2022-11-03T14:52:17.008Z,878.78
2022-11-03T14:54:45.294Z,826.58
2022-11-03T14:57:13.624Z,875.10
2022-11-03T14:59:42.382Z,778.90
2022-11-03T15:02:11.548Z,769.03
2022-11-03T15:04:42.060Z,782.67
2022-11-03T15:07:10.240Z,776.92
2022-11-03T15:09:38.415Z,700.22
2022-11-03T15:12:06.831Z,557.63
2022-11-03T15:14:35.106Z,414.38
2022-11-03T15:17:03.301Z,356.23
2022-11-03T15:19:31.721Z,317.55
2022-11-03T15:22:01.377Z,311.08
2022-11-03T15:27:20.372Z,300.50
2022-11-03T15:29:48.534Z,297.20
2022-11-03T15:32:16.940Z,292.98
2022-11-03T15:34:45.073Z,292.02
2022-11-03T15:37:15.938Z,254.73
2022-11-03T15:39:44.708Z,244.23
2022-11-03T15:42:13.044Z,242.38
2022-11-03T15:44:42.084Z,245.68
2022-11-03T15:47:10.517Z,242.20
2022-11-03T15:49:39.035Z,238.82
2022-11-03T15:52:09.765Z,182.77
2022-11-03T15:54:42.427Z,143.18
2022-11-03T15:57:11.874Z,111.07
2022-11-03T15:59:40.722Z,101.22
2022-11-03T16:02:27.854Z,91.82
2022-11-03T16:04:58.678Z,78.47
2022-11-03T16:07:27.265Z,58.25
2022-11-03T16:09:57.639Z,46.53
2022-11-03T16:12:26.422Z,42.08
2022-11-03T16:14:55.598Z,41.55
2022-11-03T16:17:24.205Z,42.15
2022-11-03T16:19:52.865Z,40.60
2022-11-03T16:22:24.159Z,40.78
2022-11-03T16:25:01.909Z,41.33
2022-11-03T16:27:34.439Z,41.60
2022-11-03T16:30:03.155Z,41.00
2022-11-03T16:32:32.034Z,40.05
2022-11-03T16:35:00.749Z,39.78
2022-11-03T16:37:29.993Z,38.85
2022-11-03T16:40:00.234Z,39.42
2022-11-03T16:42:29.185Z,37.60
2022-11-03T16:44:57.829Z,38.28
2022-11-03T16:47:27.023Z,37.75
2022-11-03T16:49:56.331Z,37.08
2022-11-03T16:52:25.160Z,38.65
2022-11-03T16:54:53.824Z,35.92
2022-11-03T16:57:23.415Z,33.70
2022-11-03T16:59:51.738Z,32.22
2022-11-03T17:02:19.931Z,30.63
2022-11-03T17:04:48.058Z,32.53
2022-11-03T17:07:16.225Z,32.30
2022-11-03T17:09:44.890Z,30.92
2022-11-03T17:12:13.187Z,30.40
2022-11-03T17:14:42.870Z,31.67
2022-11-03T17:17:11.211Z,30.52
2022-11-03T17:19:48.812Z,29.92
2022-11-03T17:22:20.343Z,28.15
2022-11-03T17:24:53.775Z,23.60
2022-11-03T17:27:28.880Z,23.17
2022-11-03T17:30:05.084Z,26.85
2022-11-03T17:32:42.978Z,28.17
2022-11-03T17:35:39.336Z,29.52
2022-11-03T17:39:16.098Z,24.60
2022-11-03T17:41:44.770Z,20.08
2022-11-03T17:44:13.819Z,21.75
2022-11-03T17:46:47.788Z,22.70
2022-11-03T17:49:16.801Z,24.95
2022-11-03T17:51:46.861Z,25.92
2022-11-03T17:54:18.744Z,26.13
2022-11-03T17:56:49.540Z,24.33
2022-11-03T17:59:17.916Z,23.35
2022-11-03T18:01:58.189Z,23.58
2022-11-03T18:04:27.243Z,23.10
2022-11-03T18:06:55.881Z,20.77
2022-11-03T18:10:27.414Z,21.90
2022-11-03T18:13:14.554Z,21.35
2022-11-03T18:15:44.531Z,23.40
2022-11-03T18:18:21.574Z,23.98
2022-11-03T18:20:55.305Z,23.08
2022-11-03T18:23:26.712Z,22.63
2022-11-03T18:25:55.510Z,22.52
2022-11-03T18:28:24.650Z,23.10
2022-11-03T18:30:56.335Z,22.13
2022-11-03T18:33:34.434Z,21.52
2022-11-03T18:36:11.962Z,21.27
2022-11-03T18:38:44.046Z,22.20
2022-11-03T18:41:29.682Z,20.63
2022-11-03T18:43:58.503Z,21.35
2022-11-03T18:46:27.461Z,21.02
2022-11-03T18:48:57.230Z,20.58
2022-11-03T18:51:25.450Z,20.30
2022-11-03T18:54:04.076Z,20.15
2022-11-03T18:56:37.256Z,20.63
2022-11-03T18:59:09.549Z,20.52
2022-11-03T19:01:37.931Z,21.70
2022-11-03T19:04:14.901Z,20.42
2022-11-03T19:06:44.974Z,20.25
2022-11-03T19:09:17.320Z,19.05
2022-11-03T19:11:47.315Z,19.88
2022-11-03T19:14:22.325Z,19.67
2022-11-03T19:17:21.220Z,18.75
2022-11-03T19:19:44.255Z,19.02
2022-11-03T19:22:15.063Z,19.10
2022-11-03T19:24:44.398Z,17.85
2022-11-03T19:27:17.947Z,18.15
2022-11-03T19:29:47.848Z,16.45
2022-11-03T19:32:23.838Z,16.75
2022-11-03T19:34:58.343Z,17.23
2022-11-03T19:37:34.008Z,16.33
2022-11-03T19:40:09.260Z,15.13
2022-11-03T19:42:37.150Z,13.63
2022-11-03T19:45:09.749Z,13.73
2022-11-03T19:47:57.553Z,14.60
2022-11-03T19:50:35.314Z,14.05
2022-11-03T19:53:06.882Z,13.90
2022-11-03T19:55:39.098Z,14.18
2022-11-03T19:58:15.746Z,14.23
2022-11-03T20:00:45.906Z,14.65
2022-11-03T20:03:15.845Z,15.07
2022-11-03T20:05:49.834Z,13.63
2022-11-03T20:08:21.922Z,13.90
2022-11-03T20:10:50.351Z,12.90
2022-11-03T20:13:22.832Z,12.57
2022-11-03T20:15:57.308Z,12.38
2022-11-03T20:18:27.498Z,12.02
2022-11-03T20:20:57.388Z,11.70
2022-11-03T20:23:31.537Z,12.25
2022-11-03T20:26:02.197Z,12.02
2022-11-03T20:28:32.397Z,11.00
2022-11-03T20:31:04.838Z,11.68
2022-11-03T20:33:33.599Z,11.18
2022-11-03T20:36:04.544Z,10.68
2022-11-03T20:38:33.556Z,11.43
2022-11-03T20:41:07.733Z,10.80
2022-11-03T20:43:41.503Z,10.98
2022-11-03T20:46:25.372Z,10.90
2022-11-03T20:48:55.994Z,10.25
2022-11-03T20:51:27.676Z,10.13
2022-11-03T20:53:56.850Z,10.90
2022-11-03T20:56:30.038Z,10.70
2022-11-03T20:58:59.240Z,10.55
2022-11-03T21:01:33.048Z,10.13
2022-11-03T21:04:03.391Z,10.10
2022-11-03T21:06:34.370Z,10.50
2022-11-03T21:09:02.839Z,9.73
2022-11-03T21:11:39.919Z,10.23
2022-11-03T21:14:15.966Z,10.38
2022-11-03T21:17:01.779Z,9.88
2022-11-03T21:22:57.170Z,9.52
2022-11-03T21:25:26.100Z,10.20
2022-11-03T21:27:55.080Z,10.15
2022-11-03T21:30:24.285Z,9.80
2022-11-03T21:32:52.565Z,9.57
2022-11-03T21:35:22.762Z,9.18
2022-11-03T21:37:52.528Z,9.75
2022-11-03T21:40:20.788Z,9.10
2022-11-03T21:43:07.636Z,8.90
2022-11-03T21:45:36.341Z,9.13
2022-11-03T21:48:22.973Z,9.35
2022-11-03T21:50:52.112Z,10.27
2022-11-03T21:53:21.694Z,10.45
2022-11-03T21:55:49.977Z,9.52
2022-11-03T21:58:18.219Z,9.68
2022-11-03T22:00:47.159Z,9.65
2022-11-03T22:03:15.861Z,9.45
2022-11-03T22:05:44.499Z,9.60
2022-11-03T22:08:12.983Z,9.45
2022-11-03T22:10:42.792Z,9.10
2022-11-03T22:13:11.534Z,9.52
2022-11-03T22:15:57.638Z,9.55
2022-11-03T22:18:25.807Z,9.45
2022-11-03T22:21:12.179Z,9.30
2022-11-03T22:23:57.966Z,8.75
2022-11-03T22:26:45.302Z,8.98
2022-11-03T22:29:42.612Z,9.63
2022-11-03T22:32:15.475Z,8.25
2022-11-03T22:35:00.985Z,8.23
2022-11-03T22:40:13.829Z,9.25
2022-11-03T22:43:00.870Z,9.40
2022-11-03T22:45:46.584Z,8.50
2022-11-03T22:48:14.871Z,8.88
2022-11-03T22:50:43.023Z,8.20
2022-11-03T22:53:28.980Z,8.32
2022-11-03T22:55:57.178Z,9.00
2022-11-03T22:58:30.503Z,8.45
2022-11-03T23:00:59.165Z,8.43
2022-11-03T23:03:31.210Z,8.25
2022-11-03T23:06:02.666Z,7.63
2022-11-03T23:08:33.060Z,7.80
2022-11-03T23:11:07.175Z,8.30
2022-11-03T23:13:37.323Z,7.43
2022-11-03T23:25:01.725Z,7.85
2022-11-03T23:27:30.600Z,7.85
2022-11-03T23:30:00.870Z,7.32
2022-11-03T23:32:30.212Z,7.07
2022-11-03T23:34:58.982Z,7.18
2022-11-03T23:37:28.268Z,7.65
2022-11-03T23:39:56.828Z,6.68
2022-11-03T23:42:26.832Z,7.13
2022-11-03T23:45:13.793Z,6.80
2022-11-03T23:48:01.420Z,7.40
2022-11-03T23:50:30.193Z,7.40
2022-11-03T23:52:58.848Z,7.03
2022-11-03T23:55:47.850Z,7.43
2022-11-03T23:58:22.355Z,7.22
